Andrews Air Force Base, Maryland
Current Conditions -  °F | °C
As of 2:58 AM on Tuesday 21 Oct 2014 (Local Time) from KADW Reporting Station
Scattered Clouds Scattered Clouds  
Wind Chill: 57°   Ceiling: Unl
Heat Index: 57°   Visibility: 10mi
Dew Point: 48°   Wind: 9mph
Humidity: 73%   Direction: 190°S
Pressure: 29.88"   Gusts: NA
Location:  38.8062°N, 76.8756°W
Report Text: KADW 210658Z AUTO 19008KT 10SM SCT075 SCT130 14/09 A2988 RMK AO2 SLP124 T01370090 $
Loading
Personal Weather Stations






























Interactive Weather Map New forecast layout! Learn more

10-Day Weather Forecast

Advertisements
Track Severe Weather on mobile